createdAt,value
2022-08-05T00:04:37.749Z,23.57
2022-08-05T00:10:41.757Z,23.55
2022-08-05T00:16:52.908Z,23.53
2022-08-05T00:22:59.590Z,23.54
2022-08-05T00:29:04.019Z,23.52
2022-08-05T00:35:07.576Z,23.50
2022-08-05T00:41:11.633Z,23.49
2022-08-05T00:47:16.357Z,23.48
2022-08-05T00:54:01.242Z,23.47
2022-08-05T00:59:44.245Z,23.46
2022-08-05T01:05:45.956Z,23.46
2022-08-05T01:11:49.000Z,23.45
2022-08-05T01:17:53.513Z,23.44
2022-08-05T01:23:55.983Z,23.43
2022-08-05T01:29:58.227Z,23.42
2022-08-05T01:35:59.750Z,23.40
2022-08-05T01:42:01.209Z,23.39
2022-08-05T01:48:03.298Z,23.36
2022-08-05T01:54:11.876Z,23.36
2022-08-05T02:00:19.497Z,23.36
2022-08-05T02:06:36.928Z,23.35
2022-08-05T02:12:39.575Z,23.35
2022-08-05T02:18:42.076Z,23.34
2022-08-05T02:24:43.636Z,23.33
2022-08-05T02:30:54.761Z,23.30
2022-08-05T02:36:58.062Z,23.28
2022-08-05T02:42:59.556Z,23.30
2022-08-05T02:49:01.075Z,23.28
2022-08-05T02:55:05.177Z,23.26
2022-08-05T03:01:07.954Z,23.29
2022-08-05T03:07:40.530Z,23.33
2022-08-05T03:13:51.532Z,23.32
2022-08-05T03:19:55.800Z,23.33
2022-08-05T03:26:04.598Z,23.31
2022-08-05T03:32:21.603Z,23.33
2022-08-05T03:38:33.191Z,23.33
2022-08-05T03:44:38.779Z,23.35
2022-08-05T03:50:40.752Z,23.38
2022-08-05T03:56:46.943Z,23.37
2022-08-05T04:02:57.807Z,23.41
2022-08-05T04:09:00.394Z,23.43
2022-08-05T04:15:01.877Z,23.51
2022-08-05T04:21:05.341Z,23.83
2022-08-05T04:27:07.271Z,24.06
2022-08-05T04:33:09.126Z,24.23
2022-08-05T04:39:11.099Z,24.42
2022-08-05T04:45:22.892Z,24.65
2022-08-05T04:51:32.883Z,24.77
2022-08-05T04:57:37.206Z,25.03
2022-08-05T05:03:42.225Z,25.28
2022-08-05T05:09:44.382Z,25.48
2022-08-05T05:15:56.141Z,25.72
2022-08-05T05:22:22.978Z,25.70
2022-08-05T05:28:22.452Z,25.71
2022-08-05T05:34:27.318Z,25.82
2022-08-05T05:40:28.931Z,25.83
2022-08-05T05:46:31.650Z,25.76
2022-08-05T05:52:37.923Z,25.81
2022-08-05T05:58:42.176Z,28.38
2022-08-05T06:04:44.106Z,27.76
2022-08-05T06:10:52.877Z,27.94
2022-08-05T06:16:54.880Z,26.36
2022-08-05T06:22:58.435Z,26.63
2022-08-05T06:29:00.228Z,26.32
2022-08-05T06:35:05.925Z,26.31
2022-08-05T06:41:16.950Z,26.21
2022-08-05T06:48:11.867Z,25.73
2022-08-05T06:53:40.322Z,25.56
2022-08-05T06:59:42.325Z,25.52
2022-08-05T07:05:57.037Z,26.20
2022-08-05T07:12:00.530Z,26.69
2022-08-05T07:18:09.774Z,26.46
2022-08-05T07:24:13.788Z,26.75
2022-08-05T07:30:24.083Z,26.10
2022-08-05T07:36:33.781Z,26.02
2022-08-05T07:42:36.328Z,26.46
2022-08-05T07:49:03.953Z,26.17
2022-08-05T07:55:00.072Z,26.07
2022-08-05T08:01:01.712Z,26.18
2022-08-05T08:07:07.951Z,26.76
2022-08-05T08:13:09.773Z,26.79
2022-08-05T08:19:37.956Z,26.33
2022-08-05T08:26:00.260Z,26.80
2022-08-05T08:31:56.988Z,26.27
2022-08-05T08:37:58.987Z,26.20
2022-08-05T08:45:22.151Z,26.13
2022-08-05T08:50:32.784Z,26.15
2022-08-05T08:56:47.605Z,26.48
2022-08-05T09:02:51.361Z,26.58
2022-08-05T09:08:53.300Z,26.50
2022-08-05T09:14:58.635Z,26.62
2022-08-05T09:21:11.506Z,26.53
2022-08-05T09:27:13.409Z,26.54
2022-08-05T09:33:35.660Z,26.57
2022-08-05T09:39:41.550Z,26.43
2022-08-05T09:46:07.735Z,26.69
2022-08-05T09:52:09.715Z,26.74
2022-08-05T09:58:13.034Z,26.75
2022-08-05T10:04:16.150Z,26.67
2022-08-05T10:10:28.058Z,26.47
2022-08-05T10:16:30.750Z,26.60
2022-08-05T10:22:34.987Z,26.81
2022-08-05T10:28:39.796Z,26.06
2022-08-05T10:34:43.877Z,25.83
2022-08-05T10:40:46.387Z,25.78
2022-08-05T10:46:50.767Z,25.77
2022-08-05T10:53:00.141Z,25.71
2022-08-05T10:59:12.129Z,25.72
2022-08-05T11:05:14.428Z,25.74
2022-08-05T11:11:20.226Z,25.73
2022-08-05T11:17:59.038Z,25.67
2022-08-05T11:24:02.879Z,25.71
2022-08-05T11:30:05.614Z,25.83
2022-08-05T11:36:11.885Z,25.77
2022-08-05T11:42:18.568Z,25.74
2022-08-05T11:48:21.560Z,25.75
2022-08-05T11:54:33.779Z,25.72
2022-08-05T12:00:38.539Z,25.62
2022-08-05T12:06:40.698Z,25.66
2022-08-05T12:12:59.388Z,25.63
2022-08-05T12:19:01.697Z,25.66
2022-08-05T12:25:03.836Z,25.60
2022-08-05T12:31:06.269Z,25.58
2022-08-05T12:37:16.227Z,25.62
2022-08-05T12:43:23.237Z,25.68
2022-08-05T12:49:25.593Z,25.83
2022-08-05T12:55:28.404Z,25.85
2022-08-05T13:02:01.592Z,25.88
2022-08-05T13:07:57.809Z,25.85
2022-08-05T13:14:05.790Z,25.83
2022-08-05T13:20:09.066Z,25.88
2022-08-05T13:26:13.064Z,25.86
2022-08-05T13:32:15.249Z,25.86
2022-08-05T13:38:36.125Z,25.86
2022-08-05T13:44:44.611Z,25.83
2022-08-05T13:50:47.116Z,25.73
2022-08-05T13:56:51.582Z,25.78
2022-08-05T14:02:53.409Z,25.81
2022-08-05T14:08:54.965Z,25.85
2022-08-05T14:15:01.098Z,25.85
2022-08-05T14:21:23.822Z,25.85
2022-08-05T14:27:47.472Z,25.88
2022-08-05T14:33:59.287Z,25.89
2022-08-05T14:40:03.154Z,25.89
2022-08-05T14:46:05.913Z,25.89
2022-08-05T14:52:10.121Z,25.91
2022-08-05T14:58:14.198Z,25.92
2022-08-05T15:04:16.006Z,25.92
2022-08-05T15:10:17.884Z,25.89
2022-08-05T15:16:30.841Z,25.92
2022-08-05T15:22:33.983Z,25.91
2022-08-05T15:28:35.800Z,25.88
2022-08-05T15:34:44.452Z,26.17
2022-08-05T15:41:21.235Z,26.24
2022-08-05T15:47:07.346Z,25.93
2022-08-05T15:53:09.611Z,25.77
2022-08-05T15:59:21.720Z,25.75
2022-08-05T16:05:23.591Z,25.73
2022-08-05T16:11:42.884Z,25.76
2022-08-05T16:17:47.594Z,25.76
2022-08-05T16:24:01.637Z,25.80
2022-08-05T16:30:04.899Z,25.79
2022-08-05T16:36:07.135Z,25.74
2022-08-05T16:42:14.382Z,25.77
2022-08-05T16:48:25.006Z,25.69
2022-08-05T16:54:32.912Z,25.63
2022-08-05T17:00:37.903Z,25.59
2022-08-05T17:06:41.984Z,25.53
2022-08-05T17:12:51.883Z,25.51
2022-08-05T17:18:53.925Z,25.51
2022-08-05T17:24:57.449Z,25.43
2022-08-05T17:30:59.800Z,25.63
2022-08-05T17:37:27.358Z,25.64
2022-08-05T17:43:53.026Z,25.46
2022-08-05T17:50:04.016Z,25.39
2022-08-05T17:56:06.715Z,25.34
2022-08-05T18:02:09.915Z,25.29
2022-08-05T18:08:12.441Z,25.27
2022-08-05T18:14:20.642Z,25.24
2022-08-05T18:20:29.513Z,25.27
2022-08-05T18:26:33.622Z,25.27
2022-08-05T18:32:35.159Z,25.26
2022-08-05T18:38:40.697Z,25.31
2022-08-05T18:44:51.791Z,25.27
2022-08-05T18:52:05.398Z,25.02
2022-08-05T18:57:43.650Z,25.14
2022-08-05T19:03:55.429Z,25.15
2022-08-05T19:09:58.213Z,25.19
2022-08-05T19:16:03.843Z,25.16
2022-08-05T19:22:05.458Z,25.19
2022-08-05T19:28:06.895Z,25.16
2022-08-05T19:34:08.776Z,25.14
2022-08-05T19:40:10.755Z,25.02
2022-08-05T19:46:16.812Z,24.96
2022-08-05T19:52:32.490Z,24.90
2022-08-05T19:58:53.344Z,25.21
2022-08-05T20:04:59.000Z,25.27
2022-08-05T20:11:01.205Z,25.23
2022-08-05T20:17:06.588Z,25.21
2022-08-05T20:23:08.512Z,25.20
2022-08-05T20:29:27.670Z,25.18
2022-08-05T20:35:29.389Z,25.15
2022-08-05T20:41:44.308Z,25.16
2022-08-05T20:47:46.824Z,25.18
2022-08-05T20:53:56.296Z,25.13
2022-08-05T21:00:19.891Z,25.10
2022-08-05T21:06:28.570Z,25.07
2022-08-05T21:12:31.277Z,24.98
2022-08-05T21:18:34.821Z,24.92
2022-08-05T21:24:37.418Z,24.85
2022-08-05T21:30:39.159Z,24.81
2022-08-05T21:36:42.601Z,24.76
2022-08-05T21:42:48.551Z,24.75
2022-08-05T21:48:53.609Z,24.69
2022-08-05T21:55:06.418Z,24.67
2022-08-05T22:01:08.695Z,24.66
2022-08-05T22:07:12.381Z,24.67
2022-08-05T22:14:19.360Z,24.63
2022-08-05T22:19:57.534Z,24.62
2022-08-05T22:26:15.776Z,24.74
2022-08-05T22:32:17.731Z,24.68
2022-08-05T22:38:19.762Z,24.28
2022-08-05T22:44:21.323Z,24.54
2022-08-05T22:50:26.767Z,24.54
2022-08-05T22:56:30.103Z,24.53
2022-08-05T23:02:32.713Z,24.51
2022-08-05T23:08:34.425Z,24.51
2022-08-05T23:14:37.594Z,24.49
2022-08-05T23:20:39.188Z,24.45
2022-08-05T23:26:41.252Z,24.45
2022-08-05T23:32:45.647Z,24.42
2022-08-05T23:38:47.102Z,24.38
2022-08-05T23:44:54.483Z,24.35
2022-08-05T23:50:56.092Z,24.32
2022-08-05T23:57:03.722Z,24.34
